Time;durP1;ratioP1;P1;durP2;ratioP2;P2;SDS_P1;SDS_P2;PMS_P1;PMS_P2;Temp;Humidity;BMP_temperature;BMP_pressure;BME280_temperature;BME280_humidity;BME280_pressure;Samples;Min_cycle;Max_cycle;Signal;HPM_P1;HPM_P2
2022/07/28 00:01:37;;;;;;;3.95;1.80;;;;;;;17.75;61.45;98783.95;1634185;87;25689;-60
2022/07/28 00:04:03;;;;;;;3.95;1.82;;;;;;;17.71;61.86;98777.53;1630203;87;27457;-58
2022/07/28 00:06:29;;;;;;;3.45;1.52;;;;;;;17.64;61.99;98778.16;1634134;87;25632;-55
2022/07/28 00:08:55;;;;;;;4.53;1.77;;;;;;;17.56;62.13;98781.36;1633928;87;25626;-58
2022/07/28 00:11:22;;;;;;;3.45;1.70;;;;;;;17.47;62.52;98780.13;1634028;87;26638;-61
2022/07/28 00:13:48;;;;;;;3.40;1.82;;;;;;;17.45;62.13;98781.09;1634130;87;25595;-59
2022/07/28 00:16:15;;;;;;;3.72;1.65;;;;;;;17.47;62.23;98780.73;1633981;87;27512;-62
2022/07/28 00:18:41;;;;;;;5.30;1.70;;;;;;;17.38;62.35;98785.85;1633777;87;25612;-58
2022/07/28 00:21:07;;;;;;;3.45;2.00;;;;;;;17.26;62.75;98782.59;1631632;87;25646;-58
2022/07/28 00:23:33;;;;;;;3.80;1.80;;;;;;;17.25;62.80;98785.71;1626132;88;26596;-51
2022/07/28 00:26:00;;;;;;;4.70;1.70;;;;;;;17.29;62.88;98782.45;1625920;88;25691;-53
2022/07/28 00:28:27;;;;;;;4.22;1.80;;;;;;;17.20;63.00;98781.81;1625944;88;27578;-53
2022/07/28 00:30:54;;;;;;;2.58;1.75;;;;;;;17.21;62.71;98784.22;1625817;88;25439;-49
2022/07/28 00:33:21;;;;;;;3.33;1.60;;;;;;;17.20;62.80;98787.34;1626030;88;25766;-54
2022/07/28 00:35:47;;;;;;;2.30;1.70;;;;;;;17.22;62.99;98787.80;1625994;88;27831;-51
2022/07/28 00:38:13;;;;;;;5.20;1.55;;;;;;;17.21;62.88;98780.07;1625863;88;25494;-53
2022/07/28 00:43:24;;;;;;;5.03;1.30;;;;;;;17.16;63.06;98774.81;1625859;88;25450;-53
2022/07/28 00:45:50;;;;;;;2.95;1.62;;;;;;;17.15;62.91;98770.41;1626352;88;25640;-53
2022/07/28 00:48:16;;;;;;;3.17;1.62;;;;;;;17.16;62.97;98774.81;1626415;88;25962;-52
2022/07/28 00:50:44;;;;;;;3.10;2.10;;;;;;;17.14;63.08;98772.40;1626005;88;25656;-56
2022/07/28 00:53:10;;;;;;;2.95;1.90;;;;;;;17.11;62.99;98777.26;1626311;88;27287;-53
2022/07/28 00:55:40;;;;;;;2.08;1.80;;;;;;;17.06;63.49;98778.30;1625819;88;27135;-52
2022/07/28 00:58:06;;;;;;;4.67;1.52;;;;;;;17.03;63.24;98771.27;1626037;88;25449;-54
2022/07/28 01:00:33;;;;;;;3.50;1.80;;;;;;;17.02;63.09;98778.78;1626263;88;25698;-65
2022/07/28 01:02:59;;;;;;;3.25;1.82;;;;;;;16.97;63.65;98776.83;1626031;87;25664;-63
2022/07/28 01:05:31;;;;;;;2.83;1.75;;;;;;;16.92;63.53;98778.70;1626209;88;27410;-54
2022/07/28 01:08:11;;;;;;;3.12;1.57;;;;;;;16.93;63.54;98778.14;1625009;88;25733;-53
2022/07/28 01:10:56;;;;;;;;;;;;;;;16.89;63.34;98780.80;1628657;88;25597;-53
2022/07/28 01:13:43;;;;;;;2.90;1.62;;;;;;;16.85;63.50;98778.52;1626112;88;25793;-64
2022/07/28 01:16:10;;;;;;;3.30;1.90;;;;;;;16.84;63.84;98786.58;1626269;88;25451;-57
2022/07/28 01:18:50;;;;;;;4.45;2.00;;;;;;;16.83;63.46;98790.52;1625916;88;27436;-62
2022/07/28 01:21:22;;;;;;;2.30;1.50;;;;;;;16.80;63.88;98783.73;1625787;87;25656;-64
2022/07/28 01:24:26;;;;;;;4.45;2.33;;;;;;;16.79;63.92;98784.89;1626013;88;25639;-60
2022/07/28 01:27:13;;;;;;;3.55;2.02;;;;;;;16.82;63.90;98786.14;1626412;88;25801;-62
2022/07/28 01:30:09;;;;;;;2.55;1.70;;;;;;;16.81;64.10;98776.21;1582007;90;25783;-59
2022/07/28 01:32:45;;;;;;;3.90;1.65;;;;;;;16.87;63.69;98779.55;1582117;90;27412;-61
2022/07/28 01:35:16;;;;;;;3.75;1.70;;;;;;;16.87;63.14;98785.88;1582595;90;26209;-66
2022/07/28 01:37:49;;;;;;;3.12;1.60;;;;;;;16.86;63.36;98787.61;1582660;90;25574;-64
2022/07/28 01:40:19;;;;;;;4.40;1.80;;;;;;;16.85;62.73;98782.67;1582777;90;25692;-61
2022/07/28 01:42:51;;;;;;;3.75;1.65;;;;;;;16.83;63.15;98783.59;1582948;90;25574;-63
2022/07/28 01:45:19;;;;;;;2.60;1.90;;;;;;;16.86;63.16;98784.27;1582906;90;27408;-64
2022/07/28 01:47:48;;;;;;;5.50;2.05;;;;;;;16.84;63.11;98785.79;1582792;90;25958;-56
2022/07/28 01:50:17;;;;;;;4.92;1.82;;;;;;;16.83;62.92;98793.28;1582781;90;25740;-55
2022/07/28 01:52:46;;;;;;;5.25;1.82;;;;;;;16.88;63.13;98800.52;1582848;90;25792;-54
2022/07/28 01:55:16;;;;;;;4.72;1.98;;;;;;;16.91;63.24;98797.05;1582984;90;25502;-54
2022/07/28 01:57:43;;;;;;;3.42;1.70;;;;;;;16.92;63.05;98798.08;1582871;90;27085;-54
2022/07/28 02:00:12;;;;;;;1.80;1.65;;;;;;;16.96;62.90;98805.11;1582411;90;25784;-54
2022/07/28 02:02:42;;;;;;;2.52;1.62;;;;;;;16.99;63.00;98806.36;1582565;90;25574;-55
2022/07/28 02:05:11;;;;;;;1.90;1.62;;;;;;;17.07;62.74;98801.25;1582855;90;26603;-54
2022/07/28 02:07:40;;;;;;;4.00;1.87;;;;;;;16.97;62.92;98805.33;1612894;88;25472;-52
2022/07/28 02:10:10;;;;;;;3.17;1.70;;;;;;;16.92;62.85;98795.88;1626237;88;26739;-54
2022/07/28 02:12:38;;;;;;;4.42;1.75;;;;;;;16.96;62.86;98800.96;1626454;88;25419;-52
2022/07/28 02:15:11;;;;;;;2.37;1.45;;;;;;;17.00;62.53;98796.31;1600585;88;25600;-55
2022/07/28 02:17:41;;;;;;;6.30;2.20;;;;;;;16.95;62.55;98801.31;1626225;88;25667;-53
2022/07/28 02:20:09;;;;;;;4.75;2.08;;;;;;;16.91;62.81;98806.17;1626151;88;25632;-53
2022/07/28 02:22:38;;;;;;;3.45;1.92;;;;;;;16.88;62.88;98801.34;1629318;87;27466;-62
2022/07/28 02:25:06;;;;;;;3.58;1.98;;;;;;;16.90;63.06;98805.92;1631466;88;25659;-65
2022/07/28 02:27:58;;;;;;;2.55;1.80;;;;;;;16.93;63.12;98807.98;1631904;87;25511;-65
2022/07/28 02:30:49;;;;;;;6.70;2.10;;;;;;;16.98;62.79;98811.08;1631718;88;25803;-64
2022/07/28 02:33:20;;;;;;;4.37;2.20;;;;;;;16.98;62.99;98811.08;1631118;87;25683;-57
2022/07/28 02:36:00;;;;;;;4.72;2.20;;;;;;;17.08;63.07;98818.69;1631760;87;28278;-54
2022/07/28 02:38:34;;;;;;;5.35;2.20;;;;;;;17.11;62.63;98813.25;1631919;87;33116;-56
2022/07/28 02:41:05;;;;;;;5.70;2.05;;;;;;;17.06;62.84;98807.36;1631179;87;25627;-55
2022/07/28 02:43:34;;;;;;;5.67;2.00;;;;;;;17.02;62.81;98813.96;1630857;87;25711;-56
2022/07/28 02:46:05;;;;;;;3.90;1.82;;;;;;;16.98;62.89;98808.91;1630988;88;25595;-64
2022/07/28 02:48:35;;;;;;;2.83;1.90;;;;;;;16.91;63.06;98807.55;1631890;87;27375;-65
2022/07/28 02:51:02;;;;;;;5.03;2.12;;;;;;;16.87;63.63;98808.61;1609687;88;25521;-63
2022/07/28 02:53:30;;;;;;;2.83;1.80;;;;;;;16.80;63.43;98818.32;1631762;87;25471;-66
2022/07/28 02:55:57;;;;;;;4.15;1.70;;;;;;;16.74;63.84;98814.76;1631672;87;26069;-65
2022/07/28 02:58:25;;;;;;;6.00;1.98;;;;;;;16.66;63.78;98820.66;1631838;87;25675;-61
2022/07/28 03:00:54;;;;;;;2.92;1.90;;;;;;;16.57;64.17;98826.34;1631815;87;27431;-66
2022/07/28 03:03:22;;;;;;;3.80;2.22;;;;;;;16.49;64.12;98824.54;1631328;87;25619;-64
2022/07/28 03:05:48;;;;;;;4.47;2.08;;;;;;;16.42;64.74;98828.70;1631960;87;25483;-64
2022/07/28 03:08:15;;;;;;;3.77;2.08;;;;;;;16.33;64.67;98826.64;1631969;87;25781;-63
2022/07/28 03:10:42;;;;;;;5.08;2.02;;;;;;;16.26;64.94;98826.43;1636882;87;25781;-61
2022/07/28 03:13:08;;;;;;;3.80;2.20;;;;;;;16.21;65.15;98835.77;1636537;87;27378;-64
2022/07/28 03:15:36;;;;;;;4.08;1.80;;;;;;;16.17;65.54;98837.59;1636830;87;25796;-55
2022/07/28 03:18:05;;;;;;;3.75;1.75;;;;;;;16.09;65.36;98837.94;1636877;87;25800;-54
2022/07/28 03:20:31;;;;;;;3.45;2.33;;;;;;;16.03;65.49;98842.91;1633589;87;26559;-53
2022/07/28 03:22:58;;;;;;;6.00;2.12;;;;;;;15.99;65.79;98846.14;1634188;86;25960;-53
2022/07/28 03:25:35;;;;;;;3.52;1.90;;;;;;;16.01;65.77;98845.20;1643716;86;27651;-55
2022/07/28 03:28:03;;;;;;;3.12;2.30;;;;;;;16.07;65.89;98849.94;1648615;86;25522;-55
2022/07/28 03:30:35;;;;;;;4.33;2.15;;;;;;;16.16;65.62;98859.49;1644640;86;25757;-55
2022/07/28 03:33:02;;;;;;;4.62;2.22;;;;;;;16.18;65.80;98858.58;1647563;85;25665;-54
2022/07/28 03:35:31;;;;;;;3.05;2.25;;;;;;;16.18;65.74;98859.36;1650594;86;25652;-54
2022/07/28 03:38:13;;;;;;;5.03;2.42;;;;;;;16.18;65.79;98862.73;1630904;86;27388;-54
2022/07/28 03:40:41;;;;;;;4.50;2.17;;;;;;;16.16;66.35;98863.07;1645422;86;25732;-55
2022/07/28 03:43:09;;;;;;;3.75;2.05;;;;;;;16.20;66.11;98859.61;1633503;86;25754;-60
2022/07/28 03:45:36;;;;;;;2.80;2.15;;;;;;;16.23;66.34;98858.33;1649311;86;25880;-57
2022/07/28 03:48:03;;;;;;;3.87;2.10;;;;;;;16.23;66.34;98855.56;1648559;86;25513;-59
2022/07/28 03:50:32;;;;;;;6.20;2.80;;;;;;;16.27;66.67;98861.22;1644831;86;27411;-62
2022/07/28 03:53:01;;;;;;;4.47;2.22;;;;;;;16.29;66.15;98861.09;1653784;86;25655;-60
2022/07/28 03:55:28;;;;;;;4.08;2.35;;;;;;;16.36;66.65;98863.84;1646168;86;25788;-62
2022/07/28 03:58:00;;;;;;;4.42;2.30;;;;;;;16.30;67.12;98867.44;1632147;87;26657;-57
2022/07/28 04:00:24;;;;;;;5.05;2.25;;;;;;;16.28;66.84;98865.58;1634003;87;25737;-55
2022/07/28 04:02:51;;;;;;;4.45;2.30;;;;;;;16.30;67.59;98868.81;1635589;87;27657;-56
2022/07/28 04:05:18;;;;;;;8.63;2.95;;;;;;;16.29;67.52;98868.56;1632150;87;25523;-55
2022/07/28 04:07:45;;;;;;;3.20;2.30;;;;;;;16.29;68.33;98870.77;1635050;87;25444;-56
2022/07/28 04:10:14;;;;;;;2.83;2.15;;;;;;;16.31;67.89;98864.89;1635536;87;25787;-55
2022/07/28 04:12:54;;;;;;;3.25;2.08;;;;;;;16.33;67.59;98870.07;1635475;87;25610;-54
2022/07/28 04:15:22;;;;;;;4.70;2.27;;;;;;;16.38;67.78;98869.84;1635819;87;27381;-54
2022/07/28 04:17:50;;;;;;;2.45;2.20;;;;;;;16.34;67.36;98871.11;1635482;87;25948;-59
2022/07/28 04:20:17;;;;;;;6.72;2.40;;;;;;;16.31;67.18;98864.89;1635524;87;25603;-63
2022/07/28 04:22:45;;;;;;;5.58;2.30;;;;;;;16.25;67.56;98867.09;1632010;87;26714;-60
2022/07/28 04:25:13;;;;;;;6.25;2.87;;;;;;;16.28;67.38;98865.02;1626213;88;25631;-58
2022/07/28 04:27:41;;;;;;;8.85;3.37;;;;;;;16.30;67.01;98865.45;1626446;88;27429;-59
2022/07/28 04:30:12;;;;;;;5.20;2.50;;;;;;;16.25;66.97;98868.47;1626364;88;25638;-63
2022/07/28 04:32:39;;;;;;;6.05;2.20;;;;;;;16.18;67.37;98869.64;1626091;88;25921;-64
2022/07/28 04:35:09;;;;;;;5.30;2.55;;;;;;;16.11;67.90;98866.05;1626516;88;25745;-64
2022/07/28 04:37:36;;;;;;;3.80;2.45;;;;;;;16.12;67.72;98866.28;1626415;88;25718;-63
2022/07/28 04:40:05;;;;;;;6.87;2.52;;;;;;;16.13;67.93;98861.56;1626432;88;27474;-65
2022/07/28 04:42:33;;;;;;;6.30;2.67;;;;;;;16.12;67.85;98860.75;1625996;88;25726;-54
2022/07/28 04:44:59;;;;;;;4.87;2.37;;;;;;;16.17;67.66;98866.05;1626340;88;25635;-54
2022/07/28 04:47:27;;;;;;;3.40;2.08;;;;;;;16.24;67.72;98863.29;1626160;88;25828;-54
2022/07/28 04:49:53;;;;;;;4.33;2.30;;;;;;;16.28;67.21;98852.57;1626315;88;25618;-54
2022/07/28 04:52:19;;;;;;;5.10;2.35;;;;;;;16.29;67.13;98857.50;1626514;87;27407;-55
2022/07/28 04:54:45;;;;;;;6.30;3.00;;;;;;;16.31;67.42;98853.83;1626289;88;25601;-55
2022/07/28 04:57:12;;;;;;;4.33;1.98;;;;;;;16.39;67.51;98862.59;1626391;88;25456;-53
2022/07/28 04:59:38;;;;;;;7.33;2.20;;;;;;;16.41;66.28;98863.63;1626573;88;26628;-55
2022/07/28 05:02:05;;;;;;;4.80;2.10;;;;;;;16.42;66.90;98860.51;1626271;88;25626;-56
2022/07/28 05:04:32;;;;;;;3.92;2.35;;;;;;;16.51;66.67;98865.08;1626082;88;27512;-56
2022/07/28 05:06:58;;;;;;;4.42;2.00;;;;;;;16.57;66.55;98863.69;1623308;88;25576;-65
2022/07/28 05:09:25;;;;;;;3.27;2.05;;;;;;;16.72;65.86;98866.30;1626502;88;25669;-66
2022/07/28 05:11:51;;;;;;;5.30;2.33;;;;;;;16.81;65.33;98871.12;1626243;88;25853;-66
2022/07/28 05:14:27;;;;;;;4.85;2.30;;;;;;;16.95;65.22;98876.84;1626334;88;25701;-66
2022/07/28 05:17:07;;;;;;;4.47;2.40;;;;;;;17.08;64.56;98878.20;1626351;88;27617;-64
2022/07/28 05:19:30;;;;;;;3.22;2.12;;;;;;;17.20;64.46;98879.55;1624734;88;25816;-64
2022/07/28 05:21:56;;;;;;;6.35;2.30;;;;;;;17.42;64.10;98883.70;1626238;88;25688;-61
2022/07/28 05:24:22;;;;;;;4.97;2.25;;;;;;;17.59;63.01;98893.43;1626217;86;25801;-56
2022/07/28 05:26:48;;;;;;;2.75;2.02;;;;;;;17.67;61.94;98894.64;1626682;88;25431;-57
2022/07/28 05:29:14;;;;;;;4.92;2.27;;;;;;;17.74;62.12;98893.22;1626312;88;27455;-56
2022/07/28 05:31:40;;;;;;;4.87;2.15;;;;;;;17.87;62.42;98896.70;1626245;88;25992;-56
2022/07/28 05:34:06;;;;;;;6.47;2.12;;;;;;;18.00;61.17;98891.31;1626733;87;25511;-58
2022/07/28 05:36:33;;;;;;;6.85;2.25;;;;;;;18.10;61.24;98895.49;1626612;88;25907;-57
2022/07/28 05:39:00;;;;;;;5.75;2.52;;;;;;;18.25;61.16;98892.50;1604226;88;25771;-56
2022/07/28 05:41:26;;;;;;;4.08;2.10;;;;;;;18.38;59.26;98902.11;1626643;88;27587;-56
2022/07/28 05:43:52;;;;;;;5.15;2.12;;;;;;;18.43;58.19;98895.69;1626190;87;25634;-57
2022/07/28 05:46:18;;;;;;;4.95;2.30;;;;;;;18.43;57.80;98899.85;1626582;88;25672;-57
2022/07/28 05:48:45;;;;;;;4.33;2.20;;;;;;;18.43;57.72;98901.84;1626559;88;26471;-56
2022/07/28 05:51:11;;;;;;;4.10;2.10;;;;;;;18.41;57.71;98901.39;1626283;87;25610;-56
2022/07/28 05:53:38;;;;;;;4.78;2.27;;;;;;;18.48;57.76;98896.59;1626472;88;27902;-63
2022/07/28 05:56:05;;;;;;;3.20;1.92;;;;;;;18.61;56.96;98894.49;1626192;87;25496;-60
2022/07/28 05:58:32;;;;;;;6.67;2.05;;;;;;;18.78;57.00;98901.04;1626613;88;25520;-62
2022/07/28 06:01:00;;;;;;;6.12;2.40;;;;;;;18.89;55.70;98897.68;1626205;88;26170;-60
2022/07/28 06:03:30;;;;;;;2.98;1.50;;;;;;;18.85;57.21;98896.20;1626528;88;25619;-57
2022/07/28 06:05:57;;;;;;;3.15;1.47;;;;;;;18.98;54.45;98896.06;1604851;88;28147;-64
2022/07/28 06:08:24;;;;;;;4.62;2.08;;;;;;;19.00;52.56;98900.69;1626179;87;25661;-56
2022/07/28 06:11:08;;;;;;;8.50;2.40;;;;;;;19.11;53.96;98899.55;1626569;88;25637;-56
2022/07/28 06:13:28;;;;;;;4.17;1.70;;;;;;;19.22;52.78;98905.30;1624446;88;25807;-56
2022/07/28 06:15:55;;;;;;;6.72;1.70;;;;;;;19.28;51.46;98903.83;1626553;88;25672;-56
2022/07/28 06:18:32;;;;;;;2.75;1.40;;;;;;;19.35;50.93;98911.52;1626361;88;27449;-56
2022/07/28 06:20:59;;;;;;;3.50;1.65;;;;;;;19.49;50.42;98909.59;1626202;88;25760;-56
2022/07/28 06:23:26;;;;;;;3.77;1.50;;;;;;;19.51;50.81;98905.84;1626353;87;25472;-56
2022/07/28 06:25:53;;;;;;;2.12;1.25;;;;;;;19.48;49.01;98907.39;1625965;88;25706;-56
2022/07/28 06:28:20;;;;;;;5.20;1.60;;;;;;;19.48;49.87;98906.00;1624328;88;25669;-56
2022/07/28 06:30:49;;;;;;;4.00;1.80;;;;;;;19.58;48.53;98914.91;1626474;87;27445;-59
2022/07/28 06:33:17;;;;;;;1.98;1.22;;;;;;;19.57;48.60;98907.16;1622022;87;25732;-56
2022/07/28 06:35:44;;;;;;;2.37;1.30;;;;;;;19.61;48.55;98905.84;1620683;88;25686;-57
2022/07/28 06:38:11;;;;;;;2.75;1.40;;;;;;;19.67;48.72;98904.37;1624880;88;25934;-57
2022/07/28 06:40:38;;;;;;;3.90;1.50;;;;;;;19.79;48.93;98904.77;1626515;88;25437;-56
2022/07/28 06:43:05;;;;;;;3.37;1.10;;;;;;;19.81;47.93;98906.60;1624723;88;27430;-56
2022/07/28 06:45:32;;;;;;;5.70;1.57;;;;;;;19.81;48.05;98907.99;1621727;88;26338;-61
2022/07/28 06:47:59;;;;;;;2.12;1.20;;;;;;;19.83;48.06;98913.19;1620653;87;25596;-62
2022/07/28 06:50:26;;;;;;;3.30;1.60;;;;;;;19.95;49.06;98908.83;1620202;88;26574;-56
2022/07/28 06:52:54;;;;;;;3.42;1.40;;;;;;;20.13;47.83;98913.33;1620346;87;25501;-54
2022/07/28 06:55:21;;;;;;;3.35;1.42;;;;;;;20.25;47.58;98903.16;1620647;88;27385;-54
2022/07/28 06:57:48;;;;;;;5.37;1.80;;;;;;;20.36;47.68;98905.53;1620106;88;25637;-55
2022/07/28 07:00:16;;;;;;;2.47;1.55;;;;;;;20.35;47.72;98904.52;1620552;88;25574;-54
2022/07/28 07:02:44;;;;;;;4.08;1.60;;;;;;;20.52;47.56;98902.57;1620305;88;25904;-55
2022/07/28 07:05:11;;;;;;;2.08;1.20;;;;;;;20.62;47.45;98899.73;1620297;87;25499;-57
2022/07/28 07:07:38;;;;;;;3.65;1.50;;;;;;;20.74;47.50;98898.70;1620472;88;27559;-56
2022/07/28 07:10:07;;;;;;;3.95;1.67;;;;;;;20.91;47.55;98899.34;1620190;88;25496;-56
2022/07/28 07:12:35;;;;;;;3.33;1.37;;;;;;;21.05;46.67;98898.14;1620445;88;25632;-56
2022/07/28 07:15:04;;;;;;;2.42;1.30;;;;;;;21.07;46.06;98899.12;1620317;87;25752;-55
2022/07/28 07:17:31;;;;;;;2.25;1.20;;;;;;;21.07;47.02;98896.34;1620436;87;25671;-54
2022/07/28 07:19:58;;;;;;;2.67;1.12;;;;;;;21.16;47.03;98897.47;1620419;87;27439;-56
2022/07/28 07:22:24;;;;;;;1.70;1.10;;;;;;;21.40;44.41;98892.55;1619973;87;25615;-56
2022/07/28 07:24:52;;;;;;;4.22;1.40;;;;;;;21.52;43.46;98891.47;1621326;86;25493;-55
2022/07/28 07:27:18;;;;;;;2.98;1.22;;;;;;;21.54;43.48;98894.09;1626139;88;25666;-56
2022/07/28 07:29:45;;;;;;;3.67;1.45;;;;;;;21.63;44.05;98898.55;1626049;88;25477;-56
2022/07/28 07:32:12;;;;;;;6.03;1.50;;;;;;;21.94;43.26;98898.66;1626380;88;27533;-55
2022/07/28 07:34:39;;;;;;;2.22;1.40;;;;;;;22.09;43.69;98894.61;1625901;88;25652;-55
2022/07/28 07:37:10;;;;;;;6.78;1.27;;;;;;;22.13;43.57;98898.83;1626132;88;25442;-55
2022/07/28 07:39:35;;;;;;;1.95;1.05;;;;;;;22.29;42.12;98891.56;1625291;88;25427;-54
2022/07/28 07:42:01;;;;;;;4.35;1.20;;;;;;;22.26;42.10;98896.52;1626176;88;25415;-55
2022/07/28 07:44:28;;;;;;;1.92;1.40;;;;;;;22.15;42.20;98892.25;1625953;88;29465;-55
2022/07/28 07:46:55;;;;;;;3.00;1.20;;;;;;;22.27;42.60;98900.32;1626047;88;25587;-56
2022/07/28 07:49:21;;;;;;;3.22;1.22;;;;;;;22.49;41.58;98901.06;1626151;88;25735;-56
2022/07/28 07:51:48;;;;;;;3.65;1.30;;;;;;;22.70;41.36;98892.03;1626302;88;25800;-56
2022/07/28 07:54:15;;;;;;;3.08;1.15;;;;;;;23.03;41.71;98893.59;1628142;88;25700;-56
2022/07/28 07:56:42;;;;;;;3.92;1.22;;;;;;;23.16;40.39;98896.23;1630076;87;27495;-56
2022/07/28 07:59:08;;;;;;;3.05;1.12;;;;;;;23.19;40.18;98894.05;1629980;87;25248;-57
2022/07/28 08:01:35;;;;;;;2.25;1.20;;;;;;;23.39;40.13;98898.52;1629987;87;25699;-56
2022/07/28 08:04:02;;;;;;;5.97;1.85;;;;;;;23.69;39.93;98895.37;1630058;88;25903;-56
2022/07/28 08:06:29;;;;;;;3.83;1.00;;;;;;;23.78;38.94;98906.17;1629976;87;25652;-56
2022/07/28 08:08:56;;;;;;;4.92;1.35;;;;;;;23.62;38.97;98898.76;1630077;88;27845;-56
2022/07/28 08:11:22;;;;;;;2.80;1.00;;;;;;;23.73;39.19;98893.19;1630000;88;25657;-57
2022/07/28 08:13:49;;;;;;;3.40;1.20;;;;;;;23.83;38.42;98896.59;1630241;87;25528;-57
2022/07/28 08:16:16;;;;;;;1.35;0.90;;;;;;;23.82;38.37;98894.99;1630203;88;26486;-56
2022/07/28 08:18:43;;;;;;;2.37;1.17;;;;;;;23.77;37.64;98892.58;1630120;88;25484;-56
2022/07/28 08:21:11;;;;;;;3.80;1.00;;;;;;;23.91;37.89;98896.80;1629918;87;27657;-55
2022/07/28 08:23:38;;;;;;;2.22;1.10;;;;;;;23.93;37.24;98899.20;1629746;87;25437;-56
2022/07/28 08:26:05;;;;;;;2.98;1.17;;;;;;;24.12;37.92;98894.41;1630106;87;25638;-55
2022/07/28 08:28:32;;;;;;;2.08;1.00;;;;;;;24.39;36.70;98894.81;1630057;88;25921;-56
2022/07/28 08:30:59;;;;;;;2.00;1.05;;;;;;;24.60;38.06;98885.34;1629898;87;25645;-56
2022/07/28 08:33:26;;;;;;;2.22;1.10;;;;;;;24.69;36.93;98890.73;1629884;87;27439;-57
2022/07/28 08:35:53;;;;;;;1.65;0.85;;;;;;;24.67;36.79;98888.15;1629987;88;25678;-57
2022/07/28 08:38:19;;;;;;;2.42;1.20;;;;;;;24.74;36.74;98883.11;1630243;88;25460;-57
2022/07/28 08:40:49;;;;;;;3.25;1.10;;;;;;;24.80;37.48;98887.91;1630066;87;25900;-56
2022/07/28 08:43:38;;;;;;;2.53;1.00;;;;;;;24.80;36.78;98883.70;1630628;87;25655;-56
2022/07/28 08:46:05;;;;;;;2.90;1.30;;;;;;;24.78;36.82;98883.91;1630539;88;27531;-54
2022/07/28 08:48:35;;;;;;;2.77;1.20;;;;;;;24.70;36.79;98878.94;1630149;87;25856;-55
2022/07/28 08:51:11;;;;;;;1.92;1.02;;;;;;;24.84;36.42;98882.89;1630247;88;25449;-54
2022/07/28 08:53:40;;;;;;;3.52;1.10;;;;;;;25.02;36.18;98871.63;1630310;87;25731;-58
2022/07/28 08:56:11;;;;;;;2.45;1.15;;;;;;;25.15;35.77;98874.16;1630352;88;25671;-58
2022/07/28 08:58:38;;;;;;;3.98;1.05;;;;;;;25.10;36.56;98870.99;1630272;87;27725;-57
2022/07/28 09:01:07;;;;;;;3.47;1.32;;;;;;;25.25;34.80;98878.13;1630392;87;25649;-57
2022/07/28 09:03:35;;;;;;;2.58;1.10;;;;;;;25.39;35.58;98870.21;1630989;87;25669;-57
2022/07/28 09:06:03;;;;;;;2.00;1.12;;;;;;;25.55;35.60;98873.13;1630203;88;25702;-55
2022/07/28 09:08:29;;;;;;;2.92;1.25;;;;;;;25.71;35.04;98875.46;1630067;87;25708;-56
2022/07/28 09:10:55;;;;;;;3.77;1.27;;;;;;;25.57;34.90;98874.92;1629959;87;27429;-63
2022/07/28 09:13:21;;;;;;;3.37;1.00;;;;;;;25.68;35.89;98873.48;1630295;87;25838;-57
2022/07/28 09:15:47;;;;;;;3.02;1.15;;;;;;;25.85;34.03;98873.16;1630340;87;25525;-57
2022/07/28 09:18:16;;;;;;;2.08;1.27;;;;;;;25.85;34.44;98871.75;1630183;87;25752;-57
2022/07/28 09:20:44;;;;;;;2.22;1.10;;;;;;;25.90;34.27;98873.29;1630015;88;25674;-57
2022/07/28 09:23:11;;;;;;;2.58;1.05;;;;;;;25.99;33.77;98874.24;1602762;88;27437;-58
2022/07/28 09:25:38;;;;;;;1.70;1.10;;;;;;;25.93;34.15;98871.06;1628767;87;25463;-57
2022/07/28 09:28:17;;;;;;;3.02;1.10;;;;;;;25.92;33.53;98871.69;1629941;87;25637;-57
2022/07/28 09:30:48;;;;;;;2.37;1.40;;;;;;;25.96;34.31;98875.07;1630102;87;25829;-56
2022/07/28 09:33:22;;;;;;;2.55;1.12;;;;;;;26.17;34.86;98874.86;1630095;87;25472;-57
2022/07/28 09:35:55;;;;;;;2.87;1.50;;;;;;;26.43;33.64;98876.06;1626642;87;28231;-56
2022/07/28 09:38:24;;;;;;;2.67;1.37;;;;;;;26.57;33.21;98869.50;1630134;88;25753;-56
2022/07/28 09:41:01;;;;;;;2.25;0.90;;;;;;;26.92;34.28;98873.11;1630413;88;25692;-56
2022/07/28 09:43:46;;;;;;;2.50;1.30;;;;;;;26.87;32.85;98874.97;1630248;87;25858;-55
2022/07/28 09:46:13;;;;;;;3.85;1.20;;;;;;;26.78;32.78;98874.08;1629170;88;25693;-56
2022/07/28 09:48:56;;;;;;;1.82;1.30;;;;;;;26.99;33.59;98865.80;1630250;87;28375;-57
2022/07/28 09:51:27;;;;;;;2.85;1.30;;;;;;;27.36;33.58;98863.30;1630248;87;25630;-55
2022/07/28 09:54:10;;;;;;;2.80;1.10;;;;;;;27.68;32.19;98861.44;1630444;87;25448;-56
2022/07/28 09:56:42;;;;;;;2.60;1.25;;;;;;;27.42;31.69;98859.59;1630204;87;26492;-56
2022/07/28 09:59:11;;;;;;;3.20;1.07;;;;;;;27.88;31.95;98863.53;1630045;88;25481;-59
2022/07/28 10:02:01;;;;;;;2.92;0.95;;;;;;;27.88;31.89;98854.28;1630274;87;27454;-55
2022/07/28 10:04:37;;;;;;;3.83;1.47;;;;;;;27.37;32.05;98845.98;1630299;88;25689;-56
2022/07/28 10:07:12;;;;;;;2.85;1.22;;;;;;;27.35;33.27;98847.05;1630330;88;25709;-57
2022/07/28 10:09:41;;;;;;;4.15;1.30;;;;;;;27.38;33.07;98852.42;1630113;87;26224;-59
2022/07/28 10:12:20;;;;;;;2.80;1.20;;;;;;;27.69;32.09;98850.98;1629944;88;25678;-56
2022/07/28 10:14:49;;;;;;;1.45;1.07;;;;;;;28.09;32.04;98849.52;1630273;88;28005;-54
2022/07/28 10:17:28;;;;;;;3.93;1.37;;;;;;;27.81;31.95;98841.14;1630095;88;25967;-56
2022/07/28 10:20:02;;;;;;;2.57;1.17;;;;;;;27.81;31.95;98841.14;1631065;86;25627;-55
2022/07/28 10:22:34;;;;;;;2.33;1.20;;;;;;;27.45;32.05;98848.09;1630143;88;25693;-54
2022/07/28 10:25:08;;;;;;;2.08;1.20;;;;;;;28.13;33.23;98844.01;1632057;86;25675;-54
2022/07/28 10:27:36;;;;;;;6.87;1.40;;;;;;;28.25;31.05;98836.94;1634860;87;27543;-55
2022/07/28 10:30:05;;;;;;;2.45;1.35;;;;;;;28.29;32.62;98838.27;1634913;87;25713;-58
2022/07/28 10:32:44;;;;;;;1.80;1.10;;;;;;;28.61;32.88;98833.28;1635128;87;25678;-58
2022/07/28 10:35:16;;;;;;;2.05;1.30;;;;;;;29.00;30.44;98840.75;1631688;87;25813;-54
2022/07/28 10:37:51;;;;;;;2.02;1.17;;;;;;;28.83;30.94;98831.41;1635186;87;25682;-59
2022/07/28 10:40:22;;;;;;;4.12;1.35;;;;;;;28.91;30.61;98839.30;1635186;87;27397;-56
2022/07/28 10:42:49;;;;;;;2.83;1.25;;;;;;;28.85;30.48;98841.65;1633516;87;25468;-56
2022/07/28 10:45:16;;;;;;;1.80;1.20;;;;;;;28.53;30.91;98842.50;1634935;87;25633;-56
2022/07/28 10:47:44;;;;;;;1.70;1.17;;;;;;;28.73;31.00;98831.22;1634801;87;25743;-60
2022/07/28 10:50:10;;;;;;;3.67;1.25;;;;;;;28.78;30.61;98832.11;1635169;87;25512;-61
2022/07/28 10:52:39;;;;;;;1.25;1.05;;;;;;;29.03;30.25;98826.58;1635140;87;27634;-59
2022/07/28 10:55:27;;;;;;;3.03;1.40;;;;;;;29.21;30.34;98829.60;1635171;87;25484;-61
2022/07/28 10:58:11;;;;;;;2.98;1.30;;;;;;;29.21;30.44;98819.72;1634807;87;25500;-58
2022/07/28 11:00:48;;;;;;;3.33;1.20;;;;;;;29.35;30.40;98822.03;1634925;87;25764;-63
2022/07/28 11:03:39;;;;;;;2.92;1.25;;;;;;;29.61;29.92;98817.41;1633602;87;25692;-61
2022/07/28 11:06:39;;;;;;;2.85;1.20;;;;;;;29.73;29.30;98813.08;1635296;87;28128;-62
2022/07/28 11:09:22;;;;;;;1.82;1.27;;;;;;;29.83;30.20;98821.11;1634096;87;25677;-55
2022/07/28 11:11:54;;;;;;;3.62;1.30;;;;;;;29.66;29.77;98811.25;1634745;87;25505;-55
2022/07/28 11:14:30;;;;;;;3.65;1.12;;;;;;;29.97;30.54;98817.13;1635094;87;25807;-53
2022/07/28 11:17:09;;;;;;;4.37;1.22;;;;;;;30.26;30.02;98814.98;1634682;87;25629;-54
2022/07/28 11:19:50;;;;;;;4.47;1.30;;;;;;;30.34;28.80;98815.58;1634937;87;27529;-54
2022/07/28 11:22:20;;;;;;;1.57;1.30;;;;;;;30.72;29.39;98822.59;1634923;87;26011;-54
2022/07/28 11:25:07;;;;;;;2.02;1.30;;;;;;;31.05;28.34;98820.22;1634263;87;25689;-54
2022/07/28 11:27:45;;;;;;;3.35;1.60;;;;;;;31.09;28.36;98818.09;1629789;88;25750;-55
2022/07/28 11:30:35;;;;;;;1.87;1.40;;;;;;;31.18;28.27;98817.41;1629956;87;25748;-54
2022/07/28 11:33:04;;;;;;;5.53;1.75;;;;;;;31.68;27.82;98807.14;1629924;87;27432;-54
2022/07/28 11:35:48;;;;;;;2.03;1.43;;;;;;;31.66;28.10;98810.42;1630320;87;25472;-56
2022/07/28 11:38:16;;;;;;;2.67;1.37;;;;;;;31.45;27.89;98809.73;1630006;87;25705;-56
2022/07/28 11:40:46;;;;;;;1.90;1.35;;;;;;;31.11;27.75;98818.41;1630003;87;25657;-54
2022/07/28 11:43:25;;;;;;;3.17;1.40;;;;;;;31.29;28.89;98808.58;1630160;88;25992;-55
2022/07/28 11:46:09;;;;;;;1.43;1.07;;;;;;;31.28;27.51;98806.98;1630591;88;28219;-55
2022/07/28 11:48:37;;;;;;;2.00;1.30;;;;;;;30.96;28.70;98806.75;1629822;87;25701;-55
2022/07/28 11:51:08;;;;;;;2.15;1.35;;;;;;;31.02;28.05;98798.48;1630306;87;25452;-58